Elmont, NY

3:05 AM EDT on October 24, 2014 (GMT -0400)
Just West of Town Hall | Change Station
CLOSE
Current Station
Personal Weather Station
Location: Floral Park, NY
Elevation: 78 ft
Nearby Weather Stations

Elev 78 ft 40.72 °N, 73.71 °W | Updated 1 second ago

Overcast
Overcast
51.6 °F
Feels Like 51.6 °F
N
5.4
Wind Variable Wind from WSW
Gusts 5.4 mph

Today
High -- | Low -- °F
--% Chance of Precip.
Yesterday
High -- | Low -- °F
Precip. -- in
7:15 AM 6:01 PM
New Moon, 0% visible
Pressure 29.78 in
Visibility 10.0 miles
Clouds Scattered Clouds 2100 ft
Overcast 3500 ft
Dew Point 44 °F
Humidity 76%
Rainfall 0.00 in
Snow Depth Not available.
UV 0 out of 12
Pollen .30 out of 12
Air Quality Not available.
Flu Activity Sporadic
METAR KJFK 240651Z 33013KT 10SM SCT021 OVC035 12/07 A2977 RMK AO2 SLP082 T01170067 $

More Conditions Fewer Conditions

Pressure 29.78 in
Visibility 10.0 miles
Clouds Scattered Clouds 2100 ft
Overcast 3500 ft
Dew Point 44 °F
Humidity 76%
Rainfall 0.00 in
Snow Depth Not available.
UV 0 out of 12
Pollen .30 out of 12
Air Quality Not available.
Flu Activity Sporadic
METAR KJFK 240651Z 33013KT 10SM SCT021 OVC035 12/07 A2977 RMK AO2 SLP082 T01170067 $

More Conditions Fewer Conditions

10-Day Weather Forecast

Almanac

Astronomy

Oct. 24, 2014 Rise Set
Actual Time 7:15 AM EDT 6:01 PM EDT
Civil Twilight 6:47 AM EDT 6:29 PM EDT
Nautical Twilight 6:15 AM EDT 7:01 PM EDT
Astronomical Twilight 5:44 AM EDT 7:33 PM EDT
Moon 7:52 AM EDT 6:39 PM EDT
Length of Visible Light 11h 41m
Length of Day
10h 45m
Tomorrow will be 2m 30s shorter.
New Moon, 0% of the Moon is Illuminated
Today
New Moon
Oct 30
First Quarter
Nov 6
Full
Nov 14
Last Quarter
Nov 22
New

Today's Extremes

State Highs State Lows

Community

WunderPhotos

Upload Photos

1,764,510 photos uploaded!

WunderBlogs® & News

Nearby

Snow Depth

Station Depth Elevation
No new snow has been reported.

Earthquake Activity

City Distance Mag. Time & Date
No recent earthquake activity has been reported nearby.
Minimum magnitude displayed is 2.5.

Coastal Water Temperatures

Place Temperature
Sandy Hook, NJ 59.0 °F
The Battery, NY 62.1 °F
Kings Point, NY 57.9 °F

Nearby Weather Stations